Terminal Aerodrome Forecast
Issued by NWS

Home | Current Version | Previous Version | Graphics & Text | Print | Product List | Glossary On
Versions: 1 2 3 4 5 6 7 8 9 10 11 12 13 14 15 16 17
000
FTUS43 KGRB 220939 AAA
TAFRHI
TAF AMD
KRHI 220939Z 2210/2306 20005KT P6SM BKN030 WS020/28030KT
     FM221200 24005KT 6SM BR BKN023
     FM221500 28005KT P6SM BKN070
     FM222200 VRB03KT P6SM SCT040 BKN080=

USA.gov is the U.S. government's official web portal to all federal, state and local government web resources and services.